sensor_id;sensor_type;location;lat;lon;timestamp;pressure;altitude;pressure_sealevel;temperature;humidity
15193;BME280;7697;51.630;7.484;2023-02-15T00:01:07;102190.19;;;4.49;88.00
15193;BME280;7697;51.630;7.484;2023-02-15T00:06:10;102184.72;;;4.41;88.26
15193;BME280;7697;51.630;7.484;2023-02-15T00:11:14;102184.97;;;4.38;88.16
15193;BME280;7697;51.630;7.484;2023-02-15T00:16:16;102160.41;;;4.17;88.33
15193;BME280;7697;51.630;7.484;2023-02-15T00:21:19;102169.69;;;4.10;88.79
15193;BME280;7697;51.630;7.484;2023-02-15T00:26:21;102150.13;;;4.03;88.60
15193;BME280;7697;51.630;7.484;2023-02-15T00:31:23;102158.47;;;3.97;88.70
15193;BME280;7697;51.630;7.484;2023-02-15T00:36:26;102155.13;;;3.95;89.59
15193;BME280;7697;51.630;7.484;2023-02-15T00:41:28;102149.66;;;3.98;89.01
15193;BME280;7697;51.630;7.484;2023-02-15T00:46:30;102160.34;;;3.95;89.44
15193;BME280;7697;51.630;7.484;2023-02-15T00:51:34;102164.06;;;3.92;88.86
15193;BME280;7697;51.630;7.484;2023-02-15T00:56:35;102155.59;;;3.89;89.08
15193;BME280;7697;51.630;7.484;2023-02-15T01:01:37;102154.28;;;3.83;89.38
15193;BME280;7697;51.630;7.484;2023-02-15T01:06:40;102156.06;;;3.83;89.50
15193;BME280;7697;51.630;7.484;2023-02-15T01:11:42;102156.66;;;3.75;88.76
15193;BME280;7697;51.630;7.484;2023-02-15T01:16:43;102157.56;;;3.63;89.61
15193;BME280;7697;51.630;7.484;2023-02-15T01:21:46;102154.78;;;3.53;89.49
15193;BME280;7697;51.630;7.484;2023-02-15T01:26:48;102153.13;;;3.52;89.50
15193;BME280;7697;51.630;7.484;2023-02-15T01:31:50;102146.22;;;3.51;89.40
15193;BME280;7697;51.630;7.484;2023-02-15T01:36:53;102141.44;;;3.45;89.30
15193;BME280;7697;51.630;7.484;2023-02-15T01:41:55;102137.72;;;3.36;89.33
15193;BME280;7697;51.630;7.484;2023-02-15T01:46:56;102120.41;;;3.23;89.76
15193;BME280;7697;51.630;7.484;2023-02-15T01:51:59;102127.09;;;3.27;90.93
15193;BME280;7697;51.630;7.484;2023-02-15T01:57:05;102132.81;;;3.32;91.72
15193;BME280;7697;51.630;7.484;2023-02-15T02:02:13;102108.78;;;3.27;91.40
15193;BME280;7697;51.630;7.484;2023-02-15T02:07:20;102116.16;;;3.33;91.59
15193;BME280;7697;51.630;7.484;2023-02-15T02:12:24;102097.94;;;3.31;90.79
15193;BME280;7697;51.630;7.484;2023-02-15T02:17:31;102089.50;;;3.28;90.98
15193;BME280;7697;51.630;7.484;2023-02-15T02:23:19;102081.38;;;3.20;91.41
15193;BME280;7697;51.630;7.484;2023-02-15T02:28:41;102098.03;;;3.19;91.14
15193;BME280;7697;51.630;7.484;2023-02-15T02:33:54;102088.25;;;3.10;91.21
15193;BME280;7697;51.630;7.484;2023-02-15T02:39:07;102080.84;;;3.04;90.69
15193;BME280;7697;51.630;7.484;2023-02-15T02:44:18;102058.94;;;2.93;90.56
15193;BME280;7697;51.630;7.484;2023-02-15T02:49:31;102068.47;;;2.94;90.40
15193;BME280;7697;51.630;7.484;2023-02-15T02:54:35;102060.94;;;2.90;90.70
15193;BME280;7697;51.630;7.484;2023-02-15T02:59:40;102062.81;;;2.88;90.62
15193;BME280;7697;51.630;7.484;2023-02-15T03:04:46;102052.81;;;2.82;90.58
15193;BME280;7697;51.630;7.484;2023-02-15T03:15:46;102055.94;;;2.63;91.09
15193;BME280;7697;51.630;7.484;2023-02-15T03:21:08;102046.66;;;2.59;91.00
15193;BME280;7697;51.630;7.484;2023-02-15T03:26:23;102049.19;;;2.48;90.82
15193;BME280;7697;51.630;7.484;2023-02-15T03:31:28;102043.69;;;2.40;91.59
15193;BME280;7697;51.630;7.484;2023-02-15T03:36:38;102041.06;;;2.40;91.11
15193;BME280;7697;51.630;7.484;2023-02-15T03:41:49;102047.34;;;2.37;90.67
15193;BME280;7697;51.630;7.484;2023-02-15T03:47:00;102043.16;;;2.35;91.25
15193;BME280;7697;51.630;7.484;2023-02-15T03:52:06;102036.50;;;2.31;90.77
15193;BME280;7697;51.630;7.484;2023-02-15T03:57:13;102046.13;;;2.30;91.55
15193;BME280;7697;51.630;7.484;2023-02-15T04:02:36;102047.50;;;2.23;91.20
15193;BME280;7697;51.630;7.484;2023-02-15T04:07:41;102039.47;;;2.13;91.32
15193;BME280;7697;51.630;7.484;2023-02-15T04:12:43;102040.22;;;2.03;91.68
15193;BME280;7697;51.630;7.484;2023-02-15T04:17:44;102037.63;;;2.03;91.59
15193;BME280;7697;51.630;7.484;2023-02-15T04:22:47;102029.50;;;1.95;91.02
15193;BME280;7697;51.630;7.484;2023-02-15T04:28:06;102039.50;;;2.01;91.88
15193;BME280;7697;51.630;7.484;2023-02-15T04:33:08;102017.28;;;1.95;91.89
15193;BME280;7697;51.630;7.484;2023-02-15T04:38:12;102011.00;;;1.85;91.72
15193;BME280;7697;51.630;7.484;2023-02-15T04:43:13;102025.50;;;1.89;91.98
15193;BME280;7697;51.630;7.484;2023-02-15T04:48:15;102026.97;;;1.93;91.41
15193;BME280;7697;51.630;7.484;2023-02-15T04:53:18;102013.63;;;1.85;91.73
15193;BME280;7697;51.630;7.484;2023-02-15T04:58:20;102016.97;;;1.87;91.62
15193;BME280;7697;51.630;7.484;2023-02-15T05:03:22;102014.47;;;1.85;91.87
15193;BME280;7697;51.630;7.484;2023-02-15T05:08:25;102013.63;;;1.85;91.96
15193;BME280;7697;51.630;7.484;2023-02-15T05:13:27;102006.63;;;1.73;91.64
15193;BME280;7697;51.630;7.484;2023-02-15T05:18:29;102002.59;;;1.69;91.91
15193;BME280;7697;51.630;7.484;2023-02-15T05:23:32;102010.19;;;1.72;91.82
15193;BME280;7697;51.630;7.484;2023-02-15T05:28:34;102007.81;;;1.69;91.19
15193;BME280;7697;51.630;7.484;2023-02-15T05:33:37;101999.78;;;1.59;91.81
15193;BME280;7697;51.630;7.484;2023-02-15T05:38:40;101976.81;;;1.52;91.29
15193;BME280;7697;51.630;7.484;2023-02-15T05:43:42;101980.06;;;1.42;91.97
15193;BME280;7697;51.630;7.484;2023-02-15T05:48:43;101981.50;;;1.46;92.06
15193;BME280;7697;51.630;7.484;2023-02-15T05:53:46;101982.97;;;1.50;92.06
15193;BME280;7697;51.630;7.484;2023-02-15T05:58:48;101974.59;;;1.45;91.92
15193;BME280;7697;51.630;7.484;2023-02-15T06:03:50;101966.38;;;1.39;92.16
15193;BME280;7697;51.630;7.484;2023-02-15T06:08:53;101969.63;;;1.42;92.03
15193;BME280;7697;51.630;7.484;2023-02-15T06:13:55;101982.44;;;1.45;93.05
15193;BME280;7697;51.630;7.484;2023-02-15T06:18:56;101969.28;;;1.34;92.54
15193;BME280;7697;51.630;7.484;2023-02-15T06:24:00;101988.00;;;1.41;92.50
15193;BME280;7697;51.630;7.484;2023-02-15T06:29:02;101983.28;;;1.33;92.43
15193;BME280;7697;51.630;7.484;2023-02-15T06:34:06;101977.75;;;1.25;92.59
15193;BME280;7697;51.630;7.484;2023-02-15T06:39:09;101974.41;;;1.23;92.04
15193;BME280;7697;51.630;7.484;2023-02-15T06:44:10;101965.94;;;1.20;92.34
15193;BME280;7697;51.630;7.484;2023-02-15T06:49:12;101972.41;;;1.27;92.65
15193;BME280;7697;51.630;7.484;2023-02-15T06:54:15;101986.09;;;1.30;93.21
15193;BME280;7697;51.630;7.484;2023-02-15T06:59:17;101987.78;;;1.31;93.13
15193;BME280;7697;51.630;7.484;2023-02-15T07:04:19;101993.59;;;1.35;93.47
15193;BME280;7697;51.630;7.484;2023-02-15T07:09:22;101983.50;;;1.30;93.49
15193;BME280;7697;51.630;7.484;2023-02-15T07:14:23;101989.66;;;1.29;93.21
15193;BME280;7697;51.630;7.484;2023-02-15T07:19:25;101974.09;;;1.28;92.98
15193;BME280;7697;51.630;7.484;2023-02-15T07:24:28;101965.03;;;1.33;92.83
15193;BME280;7697;51.630;7.484;2023-02-15T07:29:30;101975.13;;;1.38;92.99
15193;BME280;7697;51.630;7.484;2023-02-15T07:34:35;101976.19;;;1.48;93.25
15193;BME280;7697;51.630;7.484;2023-02-15T07:39:38;101972.09;;;1.57;92.77
15193;BME280;7697;51.630;7.484;2023-02-15T07:44:39;101968.75;;;1.55;93.05
15193;BME280;7697;51.630;7.484;2023-02-15T07:49:41;101957.28;;;1.57;93.19
15193;BME280;7697;51.630;7.484;2023-02-15T07:54:44;101954.13;;;1.65;93.77
15193;BME280;7697;51.630;7.484;2023-02-15T07:59:46;101940.63;;;1.71;94.08
15193;BME280;7697;51.630;7.484;2023-02-15T08:04:48;101939.56;;;1.86;94.86
15193;BME280;7697;51.630;7.484;2023-02-15T08:09:51;101939.91;;;2.05;95.36
15193;BME280;7697;51.630;7.484;2023-02-15T08:14:54;101927.78;;;2.28;96.32
15193;BME280;7697;51.630;7.484;2023-02-15T08:19:55;101925.38;;;2.49;95.44
15193;BME280;7697;51.630;7.484;2023-02-15T08:24:58;101922.38;;;2.88;96.38
15193;BME280;7697;51.630;7.484;2023-02-15T08:30:00;101905.31;;;3.29;95.61
15193;BME280;7697;51.630;7.484;2023-02-15T08:35:02;101922.16;;;3.81;95.51
15193;BME280;7697;51.630;7.484;2023-02-15T08:40:06;101915.47;;;4.31;94.67
15193;BME280;7697;51.630;7.484;2023-02-15T08:45:08;101915.75;;;4.69;93.59
15193;BME280;7697;51.630;7.484;2023-02-15T08:50:10;101912.81;;;5.04;94.03
15193;BME280;7697;51.630;7.484;2023-02-15T08:55:13;101923.13;;;5.57;92.45
15193;BME280;7697;51.630;7.484;2023-02-15T09:00:16;101910.78;;;5.88;92.14
15193;BME280;7697;51.630;7.484;2023-02-15T09:05:18;101904.88;;;6.24;91.31
15193;BME280;7697;51.630;7.484;2023-02-15T09:10:21;101897.38;;;6.58;89.85
15193;BME280;7697;51.630;7.484;2023-02-15T09:15:23;101885.53;;;6.91;89.71
15193;BME280;7697;51.630;7.484;2023-02-15T09:20:25;101888.00;;;7.39;88.22
15193;BME280;7697;51.630;7.484;2023-02-15T09:25:28;101886.28;;;7.75;87.42
15193;BME280;7697;51.630;7.484;2023-02-15T09:30:30;101880.00;;;8.21;86.29
15193;BME280;7697;51.630;7.484;2023-02-15T09:35:32;101879.16;;;8.56;84.88
15193;BME280;7697;51.630;7.484;2023-02-15T09:40:39;101889.69;;;9.00;84.17
15193;BME280;7697;51.630;7.484;2023-02-15T09:45:57;101878.44;;;9.32;82.84
15193;BME280;7697;51.630;7.484;2023-02-15T09:51:16;101891.28;;;9.69;81.66
15193;BME280;7697;51.630;7.484;2023-02-15T09:56:29;101887.91;;;10.01;80.43
15193;BME280;7697;51.630;7.484;2023-02-15T10:01:36;101881.38;;;10.37;79.86
15193;BME280;7697;51.630;7.484;2023-02-15T10:06:45;101874.03;;;10.80;78.61
15193;BME280;7697;51.630;7.484;2023-02-15T10:23:26;101892.44;;;12.07;73.61
15193;BME280;7697;51.630;7.484;2023-02-15T10:28:36;101892.53;;;12.59;73.58
15193;BME280;7697;51.630;7.484;2023-02-15T10:33:43;101885.16;;;13.13;73.09
15193;BME280;7697;51.630;7.484;2023-02-15T10:38:52;101882.94;;;13.61;71.48
15193;BME280;7697;51.630;7.484;2023-02-15T10:44:09;101873.88;;;14.12;69.80
15193;BME280;7697;51.630;7.484;2023-02-15T10:49:23;101868.78;;;14.60;69.49
15193;BME280;7697;51.630;7.484;2023-02-15T10:54:33;101863.41;;;14.81;68.30
15193;BME280;7697;51.630;7.484;2023-02-15T10:59:50;101864.06;;;15.31;67.99
15193;BME280;7697;51.630;7.484;2023-02-15T11:05:05;101867.38;;;15.74;65.18
15193;BME280;7697;51.630;7.484;2023-02-15T11:10:22;101852.56;;;15.65;65.89
15193;BME280;7697;51.630;7.484;2023-02-15T11:15:30;101851.41;;;16.07;64.56
15193;BME280;7697;51.630;7.484;2023-02-15T11:20:38;101843.19;;;16.15;61.34
15193;BME280;7697;51.630;7.484;2023-02-15T11:25:45;101846.06;;;16.20;60.65
15193;BME280;7697;51.630;7.484;2023-02-15T11:30:51;101845.25;;;16.39;59.60
15193;BME280;7697;51.630;7.484;2023-02-15T11:36:00;101838.25;;;16.51;59.63
15193;BME280;7697;51.630;7.484;2023-02-15T11:41:07;101829.41;;;16.77;59.73
15193;BME280;7697;51.630;7.484;2023-02-15T11:46:12;101832.47;;;16.74;58.60
15193;BME280;7697;51.630;7.484;2023-02-15T11:51:17;101831.44;;;16.75;59.42
15193;BME280;7697;51.630;7.484;2023-02-15T11:56:22;101825.44;;;16.93;59.84
15193;BME280;7697;51.630;7.484;2023-02-15T12:01:29;101824.69;;;17.31;58.35
15193;BME280;7697;51.630;7.484;2023-02-15T12:06:35;101800.59;;;16.79;55.49
15193;BME280;7697;51.630;7.484;2023-02-15T12:11:40;101795.69;;;16.63;58.47
15193;BME280;7697;51.630;7.484;2023-02-15T12:16:43;101788.03;;;16.73;56.20
15193;BME280;7697;51.630;7.484;2023-02-15T12:21:49;101788.81;;;16.87;55.87
15193;BME280;7697;51.630;7.484;2023-02-15T12:26:58;101786.16;;;16.87;56.30
15193;BME280;7697;51.630;7.484;2023-02-15T12:32:01;101787.81;;;17.33;56.55
15193;BME280;7697;51.630;7.484;2023-02-15T12:37:09;101786.44;;;17.61;55.84
15193;BME280;7697;51.630;7.484;2023-02-15T12:42:15;101777.69;;;17.41;55.83
15193;BME280;7697;51.630;7.484;2023-02-15T12:47:18;101770.88;;;17.39;55.45
15193;BME280;7697;51.630;7.484;2023-02-15T12:52:25;101767.13;;;17.46;54.88
15193;BME280;7697;51.630;7.484;2023-02-15T12:57:28;101768.28;;;17.25;54.47
15193;BME280;7697;51.630;7.484;2023-02-15T13:02:35;101752.81;;;17.66;56.04
15193;BME280;7697;51.630;7.484;2023-02-15T13:07:44;101749.66;;;17.75;54.94
15193;BME280;7697;51.630;7.484;2023-02-15T13:12:47;101733.19;;;18.21;55.61
15193;BME280;7697;51.630;7.484;2023-02-15T13:17:49;101727.25;;;18.37;54.80
15193;BME280;7697;51.630;7.484;2023-02-15T13:22:54;101729.84;;;18.44;51.68
15193;BME280;7697;51.630;7.484;2023-02-15T13:28:00;101726.66;;;18.54;51.79
15193;BME280;7697;51.630;7.484;2023-02-15T13:33:04;101724.78;;;18.54;50.44
15193;BME280;7697;51.630;7.484;2023-02-15T13:38:17;101710.63;;;18.47;48.44
15193;BME280;7697;51.630;7.484;2023-02-15T13:43:29;101710.78;;;18.34;49.43
15193;BME280;7697;51.630;7.484;2023-02-15T13:48:43;101699.06;;;18.28;48.83
15193;BME280;7697;51.630;7.484;2023-02-15T13:54:01;101695.59;;;18.64;48.48
15193;BME280;7697;51.630;7.484;2023-02-15T13:59:23;101703.25;;;18.79;46.14
15193;BME280;7697;51.630;7.484;2023-02-15T14:04:53;101711.94;;;19.11;46.87
15193;BME280;7697;51.630;7.484;2023-02-15T14:10:14;101703.06;;;19.40;45.39
15193;BME280;7697;51.630;7.484;2023-02-15T14:15:27;101693.91;;;19.30;45.47
15193;BME280;7697;51.630;7.484;2023-02-15T14:20:41;101682.28;;;19.18;46.55
15193;BME280;7697;51.630;7.484;2023-02-15T14:25:51;101677.31;;;19.33;46.35
15193;BME280;7697;51.630;7.484;2023-02-15T14:30:57;101671.16;;;19.44;46.62
15193;BME280;7697;51.630;7.484;2023-02-15T14:35:59;101666.78;;;19.50;45.98
15193;BME280;7697;51.630;7.484;2023-02-15T14:41:04;101669.94;;;19.70;45.25
15193;BME280;7697;51.630;7.484;2023-02-15T14:46:16;101670.53;;;19.72;45.10
15193;BME280;7697;51.630;7.484;2023-02-15T14:51:55;101676.59;;;19.67;44.47
15193;BME280;7697;51.630;7.484;2023-02-15T14:57:24;101668.88;;;19.47;45.26
15193;BME280;7697;51.630;7.484;2023-02-15T15:02:29;101664.91;;;19.20;45.88
15193;BME280;7697;51.630;7.484;2023-02-15T15:07:43;101677.69;;;19.06;47.26
15193;BME280;7697;51.630;7.484;2023-02-15T15:12:48;101675.06;;;18.88;46.83
15193;BME280;7697;51.630;7.484;2023-02-15T15:17:56;101669.28;;;18.73;46.45
15193;BME280;7697;51.630;7.484;2023-02-15T15:29:05;101654.72;;;18.26;47.36
15193;BME280;7697;51.630;7.484;2023-02-15T15:40:07;101653.06;;;17.88;46.47
15193;BME280;7697;51.630;7.484;2023-02-15T15:45:30;101652.50;;;17.55;48.14
15193;BME280;7697;51.630;7.484;2023-02-15T15:50:38;101645.28;;;17.31;49.90
15193;BME280;7697;51.630;7.484;2023-02-15T15:55:41;101651.22;;;17.01;49.91
15193;BME280;7697;51.630;7.484;2023-02-15T16:00:47;101654.50;;;16.65;51.19
15193;BME280;7697;51.630;7.484;2023-02-15T16:05:51;101648.16;;;16.46;52.10
15193;BME280;7697;51.630;7.484;2023-02-15T16:10:55;101643.72;;;16.27;52.72
15193;BME280;7697;51.630;7.484;2023-02-15T16:15:59;101637.59;;;15.94;52.85
15193;BME280;7697;51.630;7.484;2023-02-15T16:21:01;101644.63;;;15.82;54.52
15193;BME280;7697;51.630;7.484;2023-02-15T16:26:07;101645.25;;;15.70;55.02
15193;BME280;7697;51.630;7.484;2023-02-15T16:31:15;101650.75;;;15.43;55.32
15193;BME280;7697;51.630;7.484;2023-02-15T16:36:21;101643.34;;;15.18;54.67
15193;BME280;7697;51.630;7.484;2023-02-15T16:41:24;101636.72;;;14.94;54.54
15193;BME280;7697;51.630;7.484;2023-02-15T16:46:31;101641.59;;;14.78;55.06
15193;BME280;7697;51.630;7.484;2023-02-15T16:51:35;101647.66;;;14.58;55.87
15193;BME280;7697;51.630;7.484;2023-02-15T16:56:37;101642.00;;;14.34;56.56
15193;BME280;7697;51.630;7.484;2023-02-15T17:01:43;101651.28;;;14.10;56.77
15193;BME280;7697;51.630;7.484;2023-02-15T17:06:57;101655.66;;;13.89;58.26
15193;BME280;7697;51.630;7.484;2023-02-15T17:11:59;101659.81;;;13.71;59.16
15193;BME280;7697;51.630;7.484;2023-02-15T17:17:07;101676.22;;;13.46;60.21
15193;BME280;7697;51.630;7.484;2023-02-15T17:22:17;101661.63;;;13.06;60.63
15193;BME280;7697;51.630;7.484;2023-02-15T17:27:24;101666.84;;;12.93;61.82
15193;BME280;7697;51.630;7.484;2023-02-15T17:32:30;101657.97;;;12.71;62.36
15193;BME280;7697;51.630;7.484;2023-02-15T17:37:42;101649.22;;;12.56;62.79
15193;BME280;7697;51.630;7.484;2023-02-15T17:42:46;101646.47;;;12.35;63.04
15193;BME280;7697;51.630;7.484;2023-02-15T17:47:50;101655.75;;;12.24;63.48
15193;BME280;7697;51.630;7.484;2023-02-15T17:52:53;101655.03;;;12.16;64.41
15193;BME280;7697;51.630;7.484;2023-02-15T17:57:56;101663.97;;;12.00;64.67
15193;BME280;7697;51.630;7.484;2023-02-15T18:02:59;101659.81;;;11.83;65.37
15193;BME280;7697;51.630;7.484;2023-02-15T18:08:22;101667.16;;;11.73;65.62
15193;BME280;7697;51.630;7.484;2023-02-15T18:13:44;101664.38;;;11.51;66.54
15193;BME280;7697;51.630;7.484;2023-02-15T18:18:47;101668.44;;;11.39;65.95
15193;BME280;7697;51.630;7.484;2023-02-15T18:23:49;101678.28;;;11.31;66.87
15193;BME280;7697;51.630;7.484;2023-02-15T18:28:51;101678.69;;;11.19;67.20
15193;BME280;7697;51.630;7.484;2023-02-15T18:33:57;101689.72;;;11.08;67.38
15193;BME280;7697;51.630;7.484;2023-02-15T18:38:59;101683.50;;;10.93;68.00
15193;BME280;7697;51.630;7.484;2023-02-15T18:44:07;101688.38;;;10.81;67.65
15193;BME280;7697;51.630;7.484;2023-02-15T18:49:11;101686.56;;;10.74;67.97
15193;BME280;7697;51.630;7.484;2023-02-15T18:54:17;101696.22;;;10.67;68.28
15193;BME280;7697;51.630;7.484;2023-02-15T18:59:20;101683.28;;;10.72;67.32
15193;BME280;7697;51.630;7.484;2023-02-15T19:04:24;101685.28;;;10.70;67.49
15193;BME280;7697;51.630;7.484;2023-02-15T19:09:26;101698.69;;;10.68;68.26
15193;BME280;7697;51.630;7.484;2023-02-15T19:14:30;101698.19;;;10.65;67.74
15193;BME280;7697;51.630;7.484;2023-02-15T19:19:33;101700.56;;;10.60;67.28
15193;BME280;7697;51.630;7.484;2023-02-15T19:24:37;101702.41;;;10.51;68.25
15193;BME280;7697;51.630;7.484;2023-02-15T19:29:39;101701.06;;;10.47;68.46
15193;BME280;7697;51.630;7.484;2023-02-15T19:34:42;101700.47;;;10.37;68.47
15193;BME280;7697;51.630;7.484;2023-02-15T19:39:44;101707.44;;;10.38;67.88
15193;BME280;7697;51.630;7.484;2023-02-15T19:44:46;101701.59;;;10.42;67.68
15193;BME280;7697;51.630;7.484;2023-02-15T19:49:49;101694.66;;;10.41;67.79
15193;BME280;7697;51.630;7.484;2023-02-15T19:54:52;101697.13;;;10.43;68.09
15193;BME280;7697;51.630;7.484;2023-02-15T19:59:54;101691.34;;;10.39;67.96
15193;BME280;7697;51.630;7.484;2023-02-15T20:04:57;101706.59;;;10.37;68.25
15193;BME280;7697;51.630;7.484;2023-02-15T20:09:59;101706.94;;;10.34;68.03
15193;BME280;7697;51.630;7.484;2023-02-15T20:15:18;101704.13;;;10.28;68.58
15193;BME280;7697;51.630;7.484;2023-02-15T20:20:25;101701.00;;;10.24;68.35
15193;BME280;7697;51.630;7.484;2023-02-15T20:25:30;101718.53;;;10.17;68.49
15193;BME280;7697;51.630;7.484;2023-02-15T20:30:33;101701.66;;;10.10;69.10
15193;BME280;7697;51.630;7.484;2023-02-15T20:35:36;101695.34;;;10.03;69.13
15193;BME280;7697;51.630;7.484;2023-02-15T20:40:38;101706.97;;;10.02;69.44
15193;BME280;7697;51.630;7.484;2023-02-15T20:46:01;101708.59;;;10.03;69.22
15193;BME280;7697;51.630;7.484;2023-02-15T20:51:05;101712.75;;;9.97;70.09
15193;BME280;7697;51.630;7.484;2023-02-15T20:56:13;101718.03;;;9.97;70.01
15193;BME280;7697;51.630;7.484;2023-02-15T21:01:17;101714.56;;;9.89;70.70
15193;BME280;7697;51.630;7.484;2023-02-15T21:06:21;101710.59;;;9.68;70.67
15193;BME280;7697;51.630;7.484;2023-02-15T21:11:23;101719.38;;;9.61;71.70
15193;BME280;7697;51.630;7.484;2023-02-15T21:16:24;101714.72;;;9.38;72.10
15193;BME280;7697;51.630;7.484;2023-02-15T21:21:27;101716.34;;;9.23;72.68
15193;BME280;7697;51.630;7.484;2023-02-15T21:26:29;101724.75;;;9.11;72.66
15193;BME280;7697;51.630;7.484;2023-02-15T21:31:31;101736.13;;;9.03;73.30
15193;BME280;7697;51.630;7.484;2023-02-15T21:36:34;101734.06;;;8.89;74.14
15193;BME280;7697;51.630;7.484;2023-02-15T21:41:36;101738.88;;;8.85;73.65
15193;BME280;7697;51.630;7.484;2023-02-15T21:46:55;101725.59;;;8.77;74.15
15193;BME280;7697;51.630;7.484;2023-02-15T21:52:17;101742.59;;;8.75;74.17
15193;BME280;7697;51.630;7.484;2023-02-15T21:57:19;101733.00;;;8.65;74.82
15193;BME280;7697;51.630;7.484;2023-02-15T22:02:26;101727.50;;;8.59;75.28
15193;BME280;7697;51.630;7.484;2023-02-15T22:07:30;101726.13;;;8.47;75.58
15193;BME280;7697;51.630;7.484;2023-02-15T22:12:31;101725.09;;;8.40;75.53
15193;BME280;7697;51.630;7.484;2023-02-15T22:17:33;101729.72;;;8.38;76.12
15193;BME280;7697;51.630;7.484;2023-02-15T22:22:36;101727.06;;;8.38;75.19
15193;BME280;7697;51.630;7.484;2023-02-15T22:27:39;101727.00;;;8.29;76.69
15193;BME280;7697;51.630;7.484;2023-02-15T22:32:41;101718.34;;;8.19;76.57
15193;BME280;7697;51.630;7.484;2023-02-15T22:37:44;101733.56;;;8.25;76.59
15193;BME280;7697;51.630;7.484;2023-02-15T22:42:48;101725.97;;;8.22;76.08
15193;BME280;7697;51.630;7.484;2023-02-15T22:47:53;101731.25;;;8.22;77.55
15193;BME280;7697;51.630;7.484;2023-02-15T22:52:58;101724.47;;;8.20;77.43
15193;BME280;7697;51.630;7.484;2023-02-15T22:58:00;101719.47;;;8.17;77.45
15193;BME280;7697;51.630;7.484;2023-02-15T23:03:11;101717.91;;;8.06;78.03
15193;BME280;7697;51.630;7.484;2023-02-15T23:08:16;101711.16;;;8.04;77.98
15193;BME280;7697;51.630;7.484;2023-02-15T23:13:20;101706.19;;;8.01;78.00
15193;BME280;7697;51.630;7.484;2023-02-15T23:18:26;101712.28;;;8.01;78.80
15193;BME280;7697;51.630;7.484;2023-02-15T23:23:32;101695.47;;;8.02;79.02
15193;BME280;7697;51.630;7.484;2023-02-15T23:28:35;101719.56;;;8.07;78.50
15193;BME280;7697;51.630;7.484;2023-02-15T23:33:37;101725.00;;;8.06;78.70
15193;BME280;7697;51.630;7.484;2023-02-15T23:38:40;101717.41;;;8.03;78.56
15193;BME280;7697;51.630;7.484;2023-02-15T23:43:45;101708.13;;;7.99;78.25
15193;BME280;7697;51.630;7.484;2023-02-15T23:48:47;101707.25;;;7.90;79.14
15193;BME280;7697;51.630;7.484;2023-02-15T23:53:50;101703.78;;;7.89;78.65
15193;BME280;7697;51.630;7.484;2023-02-15T23:58:52;101712.19;;;7.85;78.71
